Time;durP1;ratioP1;P1;durP2;ratioP2;P2;SDS_P1;SDS_P2;PMS_P1;PMS_P2;Temp;Humidity;BMP_temperature;BMP_pressure;BME280_temperature;BME280_humidity;BME280_pressure;Samples;Min_cycle;Max_cycle;Signal;HPM_P1;HPM_P2
2021/05/19 00:01:49;;;;;;;9.10;7.03;;;;;;;14.32;82.01;97877.38;1722857;83;21076;-76
2021/05/19 00:04:16;;;;;;;10.48;7.85;;;;;;;14.33;82.07;97879.56;1728280;83;21091;-76
2021/05/19 00:06:43;;;;;;;11.12;8.35;;;;;;;14.31;82.16;97879.11;1715731;82;21131;-76
2021/05/19 00:09:13;;;;;;;9.48;7.55;;;;;;;14.28;82.16;97877.83;1714646;83;21124;-76
2021/05/19 00:11:41;;;;;;;8.38;7.40;;;;;;;14.31;82.05;97876.38;1720324;83;21063;-76
2021/05/19 00:14:09;;;;;;;10.78;7.33;;;;;;;14.33;82.08;97880.92;1723347;83;21100;-76
2021/05/19 00:16:35;;;;;;;8.95;7.42;;;;;;;14.33;82.02;97880.36;1721335;83;21068;-76
2021/05/19 00:19:03;;;;;;;10.70;8.05;;;;;;;14.31;82.03;97880.48;1706538;83;21124;-76
2021/05/19 00:21:31;;;;;;;10.50;8.40;;;;;;;14.24;82.23;97882.98;1657512;86;21114;-77
2021/05/19 00:24:00;;;;;;;10.08;7.85;;;;;;;14.23;82.25;97883.55;1720208;83;21052;-76
2021/05/19 00:26:26;;;;;;;9.10;8.13;;;;;;;14.27;82.15;97881.73;1712233;83;21072;-76
2021/05/19 00:28:55;;;;;;;10.65;7.70;;;;;;;14.29;81.96;97883.55;1713140;83;21100;-77
2021/05/19 00:31:24;;;;;;;8.60;7.70;;;;;;;14.30;81.96;97882.98;1718923;83;21083;-76
2021/05/19 00:33:51;;;;;;;11.30;8.70;;;;;;;14.28;81.97;97883.31;1723222;83;21625;-77
2021/05/19 00:36:17;;;;;;;11.83;9.05;;;;;;;14.29;82.04;97877.27;1723345;83;21669;-76
2021/05/19 00:38:45;;;;;;;9.83;8.60;;;;;;;14.25;82.14;97883.19;1721055;83;21124;-76
2021/05/19 00:41:12;;;;;;;10.00;8.48;;;;;;;14.22;82.23;97886.05;1718199;83;21052;-76
2021/05/19 00:43:39;;;;;;;9.80;8.30;;;;;;;14.23;82.12;97882.74;1721471;83;21144;-77
2021/05/19 00:46:07;;;;;;;11.10;9.10;;;;;;;14.22;82.04;97889.34;1653283;84;21058;-77
2021/05/19 00:48:35;;;;;;;9.85;8.75;;;;;;;14.20;82.02;97881.49;1663901;85;21077;-77
2021/05/19 00:51:04;;;;;;;9.85;8.45;;;;;;;14.17;82.12;97880.00;1674964;85;21048;-77
2021/05/19 00:53:32;;;;;;;13.00;9.08;;;;;;;14.14;82.27;97877.36;1676703;85;21148;-77
2021/05/19 00:55:59;;;;;;;11.00;8.95;;;;;;;14.11;82.46;97883.52;1677007;85;21389;-77
2021/05/19 00:58:25;;;;;;;;;;;;;;;14.07;82.71;97881.22;1670354;85;21111;-77
2021/05/19 01:00:52;;;;;;;10.10;8.63;;;;;;;14.08;82.67;97878.72;1663808;85;20212;-77
2021/05/19 01:03:27;;;;;;;11.57;8.83;;;;;;;14.06;82.71;97881.58;1668218;85;21132;-77
2021/05/19 01:05:59;;;;;;;10.95;8.53;;;;;;;14.07;82.67;97877.11;1661716;85;21095;-77
2021/05/19 01:11:12;;;;;;;8.88;7.15;;;;;;;14.13;82.53;97880.45;1696528;84;21012;-76
2021/05/19 01:13:42;;;;;;;8.05;7.22;;;;;;;14.08;82.28;97886.93;1698472;84;21123;-77
2021/05/19 01:16:09;;;;;;;10.75;7.90;;;;;;;13.94;82.44;97888.61;1698552;84;21072;-76
2021/05/19 01:18:37;;;;;;;11.35;7.58;;;;;;;13.79;82.73;97885.14;1682086;84;21640;-76
2021/05/19 01:21:04;;;;;;;8.23;7.15;;;;;;;13.72;83.01;97890.92;1665705;86;21068;-74
2021/05/19 01:23:31;;;;;;;8.33;7.25;;;;;;;13.68;83.19;97888.63;1698586;84;21111;-74
2021/05/19 01:26:01;;;;;;;9.00;7.20;;;;;;;13.68;83.31;97888.63;1704368;83;21097;-74
2021/05/19 01:28:28;;;;;;;8.63;7.72;;;;;;;13.66;83.38;97884.88;1724817;82;21080;-76
2021/05/19 01:30:55;;;;;;;8.65;7.35;;;;;;;13.66;83.61;97890.34;1660350;86;21077;-77
2021/05/19 01:33:22;;;;;;;9.28;7.75;;;;;;;13.73;83.95;97895.27;1666918;85;21124;-76
2021/05/19 01:35:48;;;;;;;;;;;;;;;13.80;84.06;97891.41;1731051;83;21040;-76
2021/05/19 01:38:15;;;;;;;12.95;8.80;;;;;;;13.84;84.24;97886.31;1725769;83;20167;-77
2021/05/19 01:40:43;;;;;;;12.80;8.55;;;;;;;13.76;84.36;97891.29;1717044;82;21152;-76
2021/05/19 01:43:10;;;;;;;11.88;8.30;;;;;;;13.79;84.40;97890.61;1728337;83;21084;-76
2021/05/19 01:45:50;;;;;;;8.63;7.35;;;;;;;13.88;84.33;97884.50;1688580;83;21068;-76
2021/05/19 01:48:17;;;;;;;14.25;8.15;;;;;;;13.94;84.02;97888.61;1724311;83;21096;-76
2021/05/19 01:50:45;;;;;;;10.32;8.20;;;;;;;13.98;83.87;97891.47;1729384;81;21084;-77
2021/05/19 01:53:11;;;;;;;8.75;7.85;;;;;;;14.02;83.53;97886.92;1625021;86;21084;-77
2021/05/19 01:55:38;;;;;;;9.60;8.50;;;;;;;13.98;83.12;97895.58;1650042;85;21080;-76
2021/05/19 01:58:06;;;;;;;10.98;8.33;;;;;;;13.93;83.02;97895.21;1658202;86;21100;-76
2021/05/19 02:00:34;;;;;;;8.98;7.87;;;;;;;13.90;83.49;97901.36;1673813;84;21013;-76
2021/05/19 02:03:06;;;;;;;9.65;8.50;;;;;;;13.93;83.79;97893.84;1695255;84;21120;-77
2021/05/19 02:05:35;;;;;;;11.22;7.75;;;;;;;13.99;83.35;97895.02;1696906;84;21124;-77
2021/05/19 02:08:07;;;;;;;10.88;7.40;;;;;;;13.97;82.87;97889.86;1687320;85;21112;-76
2021/05/19 02:10:37;;;;;;;10.95;8.35;;;;;;;13.92;82.64;97890.88;1663195;85;21552;-76
2021/05/19 02:13:09;;;;;;;10.60;7.70;;;;;;;13.87;82.92;97888.36;1646967;85;21104;-76
2021/05/19 02:15:38;;;;;;;9.95;7.90;;;;;;;13.87;83.25;97888.36;1668648;86;21057;-76
2021/05/19 02:18:06;;;;;;;12.70;9.00;;;;;;;13.80;83.30;97881.28;1667241;86;21144;-76
2021/05/19 02:20:33;;;;;;;9.45;8.45;;;;;;;13.73;83.31;97876.92;1665091;86;21037;-76
2021/05/19 02:23:00;;;;;;;9.55;8.65;;;;;;;13.78;83.24;97882.76;1673931;86;21157;-76
2021/05/19 02:25:27;;;;;;;10.80;8.83;;;;;;;13.79;83.20;97888.44;1665692;86;21076;-74
2021/05/19 02:27:54;;;;;;;11.53;8.83;;;;;;;13.79;83.30;97894.71;1662910;86;21112;-74
2021/05/19 02:30:22;;;;;;;9.53;8.43;;;;;;;13.81;83.44;97894.39;1726015;83;21051;-74
2021/05/19 02:33:45;;;;;;;11.23;9.03;;;;;;;13.88;83.48;97900.11;1769375;79;23270;-61
2021/05/19 02:36:12;;;;;;;9.98;8.50;;;;;;;13.82;83.74;97895.97;1736478;81;21546;-61
2021/05/19 02:38:38;;;;;;;11.50;8.93;;;;;;;13.85;83.79;97900.79;1764684;81;21605;-61
2021/05/19 02:41:05;;;;;;;9.83;8.83;;;;;;;13.92;83.66;97903.77;1773630;81;21527;-61
2021/05/19 02:43:32;;;;;;;10.32;8.93;;;;;;;14.00;83.63;97896.02;1759424;81;21674;-61
2021/05/19 02:45:58;;;;;;;14.00;8.83;;;;;;;14.08;83.50;97906.08;1759824;81;21566;-61
2021/05/19 02:48:25;;;;;;;12.40;9.48;;;;;;;14.14;83.48;97899.25;1770192;81;21909;-61
2021/05/19 02:50:51;;;;;;;;;;;;;;;14.19;83.48;97903.15;1778837;81;21096;-61
2021/05/19 02:53:18;;;;;;;9.35;8.23;;;;;;;14.25;83.50;97899.05;1773357;81;20166;-61
2021/05/19 02:55:44;;;;;;;;;;;;;;;14.21;83.75;97901.42;1774559;81;21034;-61
2021/05/19 02:58:10;;;;;;;9.18;7.85;;;;;;;14.20;83.29;97911.59;1775448;81;20159;-62
2021/05/19 03:00:38;;;;;;;9.85;8.43;;;;;;;14.13;83.33;97909.98;1766695;81;21028;-61
2021/05/19 03:03:05;;;;;;;9.00;8.10;;;;;;;14.18;83.62;97917.16;1764315;81;21515;-61
2021/05/19 03:05:32;;;;;;;9.80;8.25;;;;;;;14.23;83.41;97918.31;1773774;81;21037;-62
2021/05/19 03:07:58;;;;;;;11.85;8.95;;;;;;;14.23;83.36;97918.31;1766823;81;21096;-61
2021/05/19 03:10:25;;;;;;;10.70;9.33;;;;;;;14.23;83.41;97915.58;1757183;81;21037;-61
2021/05/19 03:12:53;;;;;;;13.68;9.93;;;;;;;14.19;83.39;97920.13;1769847;81;21160;-61
2021/05/19 03:15:20;;;;;;;11.73;10.08;;;;;;;14.18;83.45;97923.43;1758685;81;21561;-61
2021/05/19 03:17:47;;;;;;;14.68;9.88;;;;;;;14.17;83.48;97923.19;1750800;81;21513;-61
2021/05/19 03:20:15;;;;;;;11.12;9.85;;;;;;;14.15;83.51;97917.27;1760610;81;21060;-61
2021/05/19 03:22:42;;;;;;;14.20;11.20;;;;;;;14.13;83.54;97914.09;1744770;81;21080;-61
2021/05/19 03:25:10;;;;;;;12.73;10.10;;;;;;;14.15;83.70;97915.91;1768381;81;21558;-61
2021/05/19 03:27:36;;;;;;;14.10;10.55;;;;;;;14.21;83.76;97921.95;1760373;81;21622;-61
2021/05/19 03:30:04;;;;;;;;;;;;;;;14.27;83.75;97929.63;1774347;81;21935;-61
2021/05/19 03:32:31;;;;;;;;;;;;;;;14.32;83.62;97920.37;1762066;81;20321;-61
2021/05/19 03:34:58;;;;;;;;;;;;;;;14.25;83.75;97922.30;1731763;81;20535;-61
2021/05/19 03:37:24;;;;;;;;;;;;;;;14.16;84.11;97929.02;1770680;81;20506;-61
2021/05/19 03:39:50;;;;;;;;;;;;;;;14.15;84.08;97928.22;1758467;81;20135;-61
2021/05/19 03:42:17;;;;;;;;;;;;;;;14.17;84.08;97932.00;1761314;81;20147;-60
2021/05/19 03:44:43;;;;;;;;;;;;;;;14.17;84.09;97930.63;1749729;81;20159;-61
2021/05/19 03:47:10;;;;;;;;;;;;;;;14.17;84.20;97925.93;1734387;81;20150;-61
2021/05/19 03:49:39;;;;;;;;;;;;;;;14.19;84.24;97932.45;1767704;81;20144;-61
2021/05/19 03:52:05;;;;;;;;;;;;;;;14.16;84.17;97930.39;1760737;81;20146;-61
2021/05/19 03:54:34;;;;;;;;;;;;;;;14.14;84.22;97935.38;1740037;81;20155;-61
2021/05/19 03:57:04;;;;;;;;;;;;;;;14.11;84.38;97936.87;1749508;81;20156;-61
2021/05/19 03:59:31;;;;;;;;;;;;;;;14.07;84.48;97941.41;1762730;81;20163;-61
2021/05/19 04:01:58;;;;;;;;;;;;;;;14.04;84.60;97934.45;1746548;81;20159;-61
2021/05/19 04:04:24;;;;;;;;;;;;;;;14.04;84.76;97938.55;1740704;81;20157;-61
2021/05/19 04:06:51;;;;;;;;;;;;;;;14.04;84.78;97939.92;1740040;81;20174;-61
2021/05/19 04:09:18;;;;;;;;;;;;;;;14.04;84.80;97937.98;1739624;82;20527;-61
2021/05/19 04:11:44;;;;;;;;;;;;;;;13.98;85.13;97930.33;1753267;81;20164;-61
2021/05/19 04:14:11;;;;;;;;;;;;;;;13.95;85.23;97938.09;1770300;81;20155;-61
2021/05/19 04:16:39;;;;;;;;;;;;;;;14.01;85.27;97940.59;1770050;81;20152;-61
2021/05/19 04:19:08;;;;;;;;;;;;;;;14.03;85.24;97938.34;1770224;81;20168;-61
2021/05/19 04:21:35;;;;;;;;;;;;;;;14.03;85.27;97943.22;1767778;81;20191;-61
2021/05/19 04:24:01;;;;;;;;;;;;;;;14.08;85.37;97946.31;1770052;81;20513;-61
2021/05/19 04:26:27;;;;;;;;;;;;;;;14.10;85.29;97949.53;1760068;81;20517;-62
2021/05/19 04:28:55;;;;;;;;;;;;;;;14.10;85.29;97947.57;1760150;81;20171;-62
2021/05/19 04:31:22;;;;;;;;;;;;;;;14.09;85.49;97950.66;1762894;81;20572;-61
2021/05/19 04:33:48;;;;;;;;;;;;;;;14.07;85.57;97950.98;1762218;80;20163;-62
2021/05/19 04:36:16;;;;;;;;;;;;;;;14.04;85.84;97952.23;1757260;82;20144;-62
2021/05/19 04:38:42;;;;;;;;;;;;;;;14.08;85.85;97957.27;1756861;81;20148;-61
2021/05/19 04:41:09;;;;;;;;;;;;;;;14.08;86.00;97954.53;1746565;81;20167;-61
2021/05/19 04:43:35;;;;;;;;;;;;;;;14.10;86.02;97954.41;1752926;81;20229;-61
2021/05/19 04:46:01;;;;;;;;;;;;;;;14.13;86.00;97949.66;1755442;81;20179;-62
2021/05/19 04:48:29;;;;;;;;;;;;;;;14.18;86.13;97950.80;1759227;81;20160;-61
2021/05/19 04:50:56;;;;;;;;;;;;;;;14.23;86.15;97945.69;1739482;81;20170;-61
2021/05/19 04:53:22;;;;;;;;;;;;;;;14.29;86.16;97945.13;1734659;83;20147;-61
2021/05/19 04:55:48;;;;;;;;;;;;;;;14.38;86.03;97951.92;1752492;81;20163;-61
2021/05/19 04:58:15;;;;;;;;;;;;;;;14.43;85.93;97955.22;1756873;81;20184;-61
2021/05/19 05:00:41;;;;;;;;;;;;;;;14.45;85.28;97953.53;1757455;81;20625;-61
2021/05/19 05:03:11;;;;;;;;;;;;;;;14.48;85.37;97959.69;1748286;81;20158;-61
2021/05/19 05:05:38;;;;;;;;;;;;;;;14.55;85.37;97949.54;1734899;81;20158;-62
2021/05/19 05:08:04;;;;;;;;;;;;;;;14.72;84.90;97948.75;1753182;81;20160;-62
2021/05/19 05:10:31;;;;;;;;;;;;;;;14.94;84.93;97943.39;1735795;81;20167;-61
2021/05/19 05:12:57;;;;;;;;;;;;;;;15.19;83.78;97942.80;1748023;81;20156;-61
2021/05/19 05:15:23;;;;;;;;;;;;;;;15.39;82.53;97942.64;1749232;81;20163;-61
2021/05/19 05:17:51;;;;;;;;;;;;;;;15.54;82.75;97945.84;1742916;81;20152;-61
2021/05/19 05:20:17;;;;;;;;;;;;;;;15.72;82.73;97937.56;1741399;81;20206;-61
2021/05/19 05:22:45;;;;;;;;;;;;;;;15.93;80.88;97938.16;1734209;83;20174;-62
2021/05/19 05:25:13;;;;;;;;;;;;;;;16.10;79.92;97930.98;1734711;83;20468;-61
2021/05/19 05:27:42;;;;;;;;;;;;;;;16.24;79.45;97931.93;1734666;83;20146;-63
2021/05/19 05:30:09;;;;;;;;;;;;;;;16.34;78.24;97936.89;1734791;83;20143;-61
2021/05/19 05:32:35;;;;;;;;;;;;;;;16.52;77.39;97943.65;1735845;82;20393;-61
2021/05/19 05:35:02;;;;;;;;;;;;;;;16.71;76.60;97945.16;1745344;82;20170;-61
2021/05/19 05:37:28;;;;;;;;;;;;;;;16.83;76.91;97945.63;1708328;82;20162;-61
2021/05/19 05:39:55;;;;;;;;;;;;;;;16.91;73.66;97938.58;1745458;82;20177;-61
2021/05/19 05:42:21;;;;;;;;;;;;;;;17.07;73.62;97942.69;1745445;82;20146;-61
2021/05/19 05:44:47;;;;;;;;;;;;;;;17.21;72.77;97938.09;1745507;82;20169;-61
2021/05/19 05:47:14;;;;;;;;;;;;;;;17.24;73.28;97940.12;1745528;82;20487;-61
2021/05/19 05:49:40;;;;;;;;;;;;;;;17.25;72.63;97945.25;1745326;82;20186;-61
2021/05/19 05:52:07;;;;;;;;;;;;;;;17.33;72.21;97948.39;1745580;82;20194;-61
2021/05/19 05:54:33;;;;;;;;;;;;;;;17.37;72.18;97950.64;1745547;82;20437;-62
2021/05/19 05:56:59;;;;;;;;;;;;;;;17.29;71.73;97953.00;1745524;82;20138;-62
2021/05/19 05:59:26;;;;;;;;;;;;;;;17.17;70.95;97959.21;1745513;82;20154;-61
2021/05/19 06:01:52;;;;;;;;;;;;;;;17.08;71.65;97955.84;1745479;82;20192;-62
2021/05/19 06:04:19;;;;;;;;;;;;;;;17.10;71.63;97962.59;1745392;82;20177;-62
2021/05/19 06:06:45;;;;;;;;;;;;;;;17.07;72.29;97955.64;1745597;82;20468;-62
2021/05/19 06:09:11;;;;;;;;;;;;;;;17.04;71.90;97962.62;1745535;82;20488;-62
2021/05/19 06:11:38;;;;;;;;;;;;;;;17.01;71.71;97968.84;1745531;82;20149;-62
2021/05/19 06:14:04;;;;;;;;;;;;;;;17.08;72.05;97967.63;1761619;81;20155;-59
2021/05/19 06:16:30;;;;;;;;;;;;;;;17.17;71.87;97965.51;1775847;81;20156;-60
2021/05/19 06:18:57;;;;;;;;;;;;;;;17.20;72.39;97977.16;1776048;81;20156;-60
2021/05/19 06:21:23;;;;;;;;;;;;;;;17.10;71.61;97975.54;1775865;81;20172;-60
2021/05/19 06:23:49;;;;;;;;;;;;;;;16.95;72.01;97974.39;1776048;81;20759;-60
2021/05/19 06:26:16;;;;;;;;;;;;;;;16.86;72.25;97975.94;1776083;81;20187;-60
2021/05/19 06:28:43;;;;;;;;;;;;;;;16.91;72.30;97973.51;1773602;81;20164;-59
2021/05/19 06:31:09;;;;;;;;;;;;;;;16.92;72.78;97973.73;1769183;81;20493;-60
2021/05/19 06:33:36;;;;;;;;;;;;;;;16.86;73.38;97987.53;1771873;79;20152;-59
2021/05/19 06:36:03;;;;;;;;;;;;;;;16.77;73.66;97986.33;1740067;81;20202;-60
2021/05/19 06:38:29;;;;;;;;;;;;;;;16.77;73.44;97991.02;1766769;81;20167;-59
2021/05/19 06:40:56;;;;;;;;;;;;;;;16.82;73.44;97994.89;1760347;81;20175;-60
2021/05/19 06:43:22;;;;;;;;;;;;;;;16.70;73.60;97990.27;1749147;81;20170;-59
2021/05/19 06:45:48;;;;;;;;;;;;;;;16.58;73.84;97993.08;1739935;82;20217;-60
2021/05/19 06:48:16;;;;;;;;;;;;;;;16.53;74.06;97989.77;1739840;82;20154;-59
2021/05/19 06:50:42;;;;;;;;;;;;;;;16.66;73.98;97992.12;1739951;82;20153;-59
2021/05/19 06:53:08;;;;;;;;;;;;;;;16.74;73.93;97997.22;1739872;82;20169;-58
2021/05/19 06:55:34;;;;;;;;;;;;;;;16.68;74.11;98001.39;1739841;82;20169;-59
2021/05/19 06:58:01;;;;;;;;;;;;;;;16.61;74.30;97998.46;1739765;82;20253;-59
2021/05/19 07:00:28;;;;;;;;;;;;;;;16.64;74.48;97990.88;1759686;81;20172;-62
2021/05/19 07:02:54;;;;;;;;;;;;;;;16.81;74.56;97995.45;1760472;81;20183;-58
2021/05/19 07:05:20;;;;;;;;;;;;;;;16.98;74.13;97994.30;1762223;81;20200;-59
2021/05/19 07:07:47;;;;;;;;;;;;;;;16.98;73.27;97994.87;1759076;81;20469;-59
2021/05/19 07:10:15;;;;;;;;;;;;;;;16.92;73.48;97991.60;1756058;81;20171;-60
2021/05/19 07:12:43;;;;;;;;;;;;;;;16.98;73.77;98001.73;1770060;81;20172;-60
2021/05/19 07:15:12;;;;;;;;;;;;;;;17.05;72.91;98011.53;1765815;81;20164;-60
2021/05/19 07:17:40;;;;;;;;;;;;;;;17.20;72.55;98001.91;1743048;81;20152;-60
2021/05/19 07:20:11;;;;;;;;;;;;;;;17.27;72.25;98007.58;1770341;81;20176;-58
2021/05/19 07:22:39;;;;;;;;;;;;;;;17.23;72.00;98005.89;1770474;81;20766;-58
2021/05/19 07:25:06;;;;;;;;;;;;;;;17.19;72.21;98016.00;1770483;81;20160;-58
2021/05/19 07:27:32;;;;;;;;;;;;;;;17.24;71.88;98016.55;1760431;81;20164;-58
2021/05/19 07:30:01;;;;;;;;;;;;;;;17.35;71.91;98016.80;1760269;81;20164;-58
2021/05/19 07:32:27;;;;;;;;;;;;;;;17.36;70.87;98024.67;1760422;81;20358;-58
2021/05/19 07:34:53;;;;;;;;;;;;;;;17.37;71.16;98019.41;1733524;81;20166;-58
2021/05/19 07:37:21;;;;;;;;;;;;;;;17.39;70.37;98018.45;1728672;83;20162;-58
2021/05/19 07:39:49;;;;;;;;;;;;;;;17.45;70.30;98023.69;1728806;83;20170;-58
2021/05/19 07:42:19;;;;;;;;;;;;;;;17.50;70.02;98026.18;1710892;83;20589;-58
2021/05/19 07:44:45;;;;;;;;;;;;;;;17.49;69.98;98019.87;1725888;83;20146;-59
2021/05/19 07:47:12;;;;;;;;;;;;;;;17.55;70.24;98019.01;1723583;83;20173;-61
2021/05/19 07:49:39;;;;;;;;;;;;;;;17.69;70.08;98027.04;1724064;83;20178;-59
2021/05/19 07:52:06;;;;;;;;;;;;;;;17.83;69.13;98029.30;1725723;83;20166;-59
2021/05/19 07:54:34;;;;;;;;;;;;;;;17.93;68.88;98031.48;1725733;83;20138;-60
2021/05/19 07:57:25;;;;;;;;;;;;;;;17.95;68.28;98038.02;1724023;83;20194;-60
2021/05/19 07:59:54;;;;;;;;;;;;;;;17.86;67.83;98032.70;1724687;83;20491;-60
2021/05/19 08:02:16;;;;;;;;;;;;;;;17.84;68.47;98034.45;1725123;83;20150;-60
2021/05/19 08:04:43;;;;;;;;;;;;;;;17.92;67.51;98038.74;1725506;83;20162;-60
2021/05/19 08:07:09;;;;;;;;;;;;;;;18.02;67.47;98038.97;1731869;82;20146;-61
2021/05/19 08:09:36;;;;;;;;;;;;;;;18.10;67.23;98043.48;1725861;82;20150;-61
2021/05/19 08:12:02;;;;;;;;;;;;;;;18.12;67.67;98039.77;1726109;83;20468;-61
2021/05/19 08:14:32;;;;;;;;;;;;;;;18.14;67.32;98038.81;1731829;82;20183;-61
2021/05/19 08:16:58;;;;;;;;;;;;;;;18.20;67.93;98040.72;1726157;83;20521;-61
2021/05/19 08:19:25;;;;;;;;;;;;;;;18.24;67.68;98041.59;1725791;83;20496;-61
2021/05/19 08:21:52;;;;;;;;;;;;;;;18.36;67.80;98039.47;1725900;83;20170;-61
2021/05/19 08:24:18;;;;;;;;;;;;;;;18.55;67.13;98042.02;1725822;83;20565;-60
2021/05/19 08:26:44;;;;;;;;;;;;;;;18.53;67.61;98046.51;1725930;83;20158;-61
2021/05/19 08:29:10;;;;;;;;;;;;;;;18.54;67.41;98049.48;1725938;83;20566;-61
2021/05/19 08:31:38;;;;;;;;;;;;;;;18.55;65.75;98047.53;1725782;83;20170;-61
2021/05/19 08:34:04;;;;;;;;;;;;;;;18.62;65.87;98051.23;1742986;81;20184;-62
2021/05/19 08:36:32;;;;;;;;;;;;;;;18.75;65.34;98050.47;1770302;81;20184;-61
2021/05/19 08:38:58;;;;;;;;;;;;;;;18.89;65.05;98049.34;1770316;81;20171;-61
2021/05/19 08:41:24;;;;;;;;;;;;;;;18.97;65.14;98054.41;1770507;81;20152;-61
2021/05/19 08:43:51;;;;;;;;;;;;;;;19.09;65.19;98056.42;1770424;81;20139;-61
2021/05/19 08:46:18;;;;;;;;;;;;;;;19.27;64.27;98054.73;1770317;81;20180;-62
2021/05/19 08:48:52;;;;;;;;;;;;;;;19.48;63.00;98051.57;1770423;81;20177;-61
2021/05/19 08:51:13;;;;;;;;;;;;;;;19.83;62.80;98043.81;1769388;81;20179;-62
2021/05/19 08:53:39;;;;;;;;;;;;;;;20.12;60.63;98045.58;1770124;81;20494;-62
2021/05/19 08:56:09;;;;;;;;;;;;;;;20.16;61.28;98048.58;1770368;81;20148;-62
2021/05/19 08:58:35;;;;;;;;;;;;;;;20.16;61.15;98050.53;1770406;80;20156;-61
2021/05/19 09:01:01;;;;;;;;;;;;;;;20.16;61.46;98048.58;1770440;81;20148;-62
2021/05/19 09:03:28;;;;;;;;;;;;;;;20.17;58.99;98050.76;1770275;81;20553;-61
2021/05/19 09:05:54;;;;;;;;;;;;;;;20.24;61.06;98057.75;1770499;81;20184;-62
2021/05/19 09:08:20;;;;;;;;;;;;;;;20.31;61.20;98056.48;1770285;81;20164;-61
2021/05/19 09:10:59;;;;;;;;;;;;;;;20.32;60.44;98056.70;1770171;81;20594;-62
2021/05/19 09:13:37;;;;;;;;;;;;;;;20.25;58.87;98061.53;1770285;80;20506;-62
2021/05/19 09:16:04;;;;;;;;;;;;;;;20.10;60.37;98059.75;1760297;81;20172;-62
2021/05/19 09:18:50;;;;;;;;;;;;;;;19.93;59.87;98063.66;1770394;81;20160;-62
2021/05/19 09:21:36;;;;;;;;;;;;;;;19.72;61.63;98057.24;1770527;81;20149;-62
2021/05/19 09:24:10;;;;;;;;;;;;;;;19.61;62.58;98052.95;1769880;81;20164;-62
2021/05/19 09:26:58;;;;;;;;;;;;;;;19.65;62.02;98055.76;1770276;81;20148;-61
2021/05/19 09:29:29;;;;;;;;;;;;;;;19.75;62.11;98052.36;1770371;81;20159;-62
2021/05/19 09:31:58;;;;;;;;;;;;;;;19.82;61.64;98059.36;1770162;81;20478;-62
2021/05/19 09:34:28;;;;;;;;;;;;;;;19.81;62.90;98057.76;1768238;81;20156;-62
2021/05/19 09:37:24;;;;;;;;;;;;;;;19.71;61.94;98061.16;1764792;81;20160;-62
2021/05/19 09:40:04;;;;;;;;;;;;;;;19.59;61.76;98062.16;1764824;81;20156;-62
2021/05/19 09:42:37;;;;;;;;;;;;;;;19.53;62.54;98064.23;1764767;81;20470;-61
2021/05/19 09:45:32;;;;;;;;;;;;;;;19.51;62.95;98066.00;1765020;81;20164;-62
2021/05/19 09:47:59;;;;;;;;;;;;;;;19.49;62.16;98070.28;1765015;81;20183;-61
2021/05/19 09:50:37;;;;;;;;;;;;;;;19.35;63.86;98078.52;1764719;81;20486;-61
2021/05/19 09:53:11;;;;;;;;;;;;;;;19.22;64.07;98079.87;1764858;81;20195;-62
2021/05/19 09:55:39;;;;;;;;;;;;;;;19.05;65.43;98087.84;1764851;81;20149;-62
2021/05/19 09:58:05;;;;;;;;;;;;;;;18.91;66.05;98081.50;1764916;81;20165;-62
2021/05/19 10:00:31;;;;;;;;;;;;;;;18.83;66.60;98091.59;1764829;81;20172;-61
2021/05/19 10:03:00;;;;;;;;;;;;;;;18.75;67.41;98093.19;1765033;81;20521;-62
2021/05/19 10:05:31;;;;;;;;;;;;;;;18.65;68.42;98094.59;1764806;81;20486;-62
2021/05/19 10:07:54;;;;;;;;;;;;;;;18.56;69.63;98094.03;1764432;81;20132;-62
2021/05/19 10:10:24;;;;;;;;;;;;;;;18.45;69.86;98092.98;1764746;81;20160;-62
2021/05/19 10:12:50;;;;;;;;;;;;;;;18.37;70.31;98091.23;1764129;81;20136;-62
2021/05/19 10:15:20;;;;;;;;;;;;;;;18.35;70.65;98088.83;1764781;81;20152;-62
2021/05/19 10:17:52;;;;;;;;;;;;;;;18.24;71.09;98093.34;1764557;81;20153;-63
2021/05/19 10:20:20;;;;;;;;;;;;;;;17.95;71.55;98088.95;1765071;81;20165;-63
2021/05/19 10:22:48;;;;;;;;;;;;;;;17.80;72.65;98088.63;1765121;81;20499;-62
2021/05/19 10:25:34;;;;;;;;;;;;;;;17.85;73.03;98088.33;1764978;81;20145;-62
2021/05/19 10:28:02;;;;;;;;;;;;;;;18.03;73.97;98092.86;1764881;81;20156;-63
2021/05/19 10:30:47;;;;;;;;;;;;;;;18.19;73.95;98088.69;1764992;81;20157;-62
2021/05/19 10:33:41;;;;;;;;;;;;;;;18.21;73.22;98094.64;1764934;81;20168;-62
2021/05/19 10:36:27;;;;;;;;;;;;;;;18.17;72.90;98097.32;1764739;81;20164;-61
2021/05/19 10:39:16;;;;;;;;;;;;;;;18.21;72.59;98100.16;1764703;80;20176;-62
2021/05/19 10:41:53;;;;;;;;;;;;;;;18.35;71.23;98101.22;1764825;81;20454;-61
2021/05/19 10:44:28;;;;;;;;;;;;;;;18.39;71.73;98106.23;1764879;81;20164;-61
2021/05/19 10:47:04;;;;;;;;;;;;;;;18.40;72.58;98112.54;1764842;81;20478;-61
2021/05/19 10:49:48;;;;;;;;;;;;;;;18.34;72.27;98102.98;1764861;81;20156;-61
2021/05/19 10:57:11;;;;;;;;;;;;;;;18.44;73.06;98114.80;1765030;81;20156;-61
2021/05/19 10:57:49;;;;;;;;;;;;;;;18.55;72.28;98125.49;1765061;81;20175;-61
2021/05/19 11:00:26;;;;;;;;;;;;;;;18.58;71.55;98123.38;1765017;81;20167;-61
2021/05/19 11:02:57;;;;;;;;;;;;;;;18.62;71.74;98124.83;1764837;81;20168;-61
2021/05/19 11:05:33;;;;;;;;;;;;;;;18.69;70.83;98127.73;1764885;81;20509;-62
2021/05/19 11:08:11;;;;;;;;;;;;;;;18.63;70.50;98129.99;1764939;81;20204;-61
2021/05/19 11:10:40;;;;;;;;;;;;;;;18.47;69.95;98131.17;1765057;81;20149;-62
2021/05/19 11:13:07;;;;;;;;;;;;;;;18.23;69.35;98135.80;1765020;81;20489;-62
2021/05/19 11:15:45;;;;;;;;;;;;;;;18.04;68.77;98145.39;1764825;80;20164;-62
2021/05/19 11:18:30;;;;;;;;;;;;;;;17.82;69.22;98150.17;1745202;81;20156;-62
2021/05/19 11:20:49;;;;;;;;;;;;;;;17.53;68.59;98149.26;1763747;81;20203;-63
2021/05/19 11:23:15;;;;;;;;;;;;;;;17.18;69.63;98155.43;1765039;81;20490;-61
2021/05/19 11:25:42;;;;;;;;;;;;;;;16.99;70.62;98158.08;1764912;81;20148;-62
2021/05/19 11:28:08;;;;;;;;;;;;;;;16.78;69.42;98164.36;1765064;81;20184;-60
2021/05/19 11:30:35;;;;;;;;;;;;;;;16.57;70.04;98169.25;1765108;81;20156;-60
2021/05/19 11:33:07;;;;;;;;;;;;;;;16.44;70.17;98172.55;1765227;81;20152;-60
2021/05/19 11:35:33;;;;;;;;;;;;;;;16.32;70.19;98167.92;1765026;81;20152;-61
2021/05/19 11:38:07;;;;;;;;;;;;;;;16.25;71.18;98177.88;1765065;81;20191;-61
2021/05/19 11:40:42;;;;;;;;;;;;;;;16.14;72.06;98174.81;1765000;81;20548;-62
2021/05/19 11:43:08;;;;;;;;;;;;;;;15.95;72.99;98177.34;1764958;81;20160;-61
2021/05/19 11:45:34;;;;;;;;;;;;;;;15.88;73.83;98190.27;1764999;81;20160;-61
2021/05/19 11:48:00;;;;;;;;;;;;;;;15.86;74.29;98186.27;1764927;81;20513;-63
2021/05/19 11:50:31;;;;;;;;;;;;;;;15.87;74.43;98183.17;1765062;80;20140;-62
2021/05/19 11:53:02;;;;;;;;;;;;;;;15.87;74.88;98181.80;1765001;81;20152;-62
2021/05/19 11:55:51;;;;;;;;;;;;;;;15.80;75.64;98184.91;1765161;81;20152;-61
2021/05/19 11:58:27;;;;;;;;;;;;;;;15.80;76.68;98178.05;1765007;81;20128;-62
2021/05/19 12:00:59;;;;;;;;;;;;;;;15.70;77.83;98183.41;1764896;80;20513;-62
2021/05/19 12:03:27;;;;;;;;;;;;;;;15.66;78.49;98178.37;1765156;81;20156;-61
2021/05/19 12:06:03;;;;;;;;;;;;;;;15.61;78.38;98179.18;1764875;81;20180;-60
2021/05/19 12:08:36;;;;;;;;;;;;;;;15.53;78.10;98175.40;1764950;81;20500;-61
2021/05/19 12:11:09;;;;;;;;;;;;;;;15.38;78.67;98178.77;1764882;81;20195;-60
2021/05/19 12:13:38;;;;;;;;;;;;;;;15.26;79.37;98174.66;1764769;81;20148;-59
2021/05/19 12:16:06;;;;;;;;;;;;;;;15.20;79.91;98178.73;1765009;81;20152;-60
2021/05/19 12:18:33;;;;;;;;;;;;;;;15.15;80.45;98167.44;1764819;81;20169;-62
2021/05/19 12:21:08;;;;;;;;;;;;;;;15.13;80.42;98173.80;1764838;81;20140;-61
2021/05/19 12:23:38;;;;;;;;;;;;;;;15.10;80.67;98174.48;1764913;81;20156;-61
2021/05/19 12:26:09;;;;;;;;;;;;;;;15.03;80.96;98174.80;1764950;81;20144;-61
2021/05/19 12:28:36;;;;;;;;;;;;;;;14.99;81.13;98182.09;1764885;81;20494;-61
2021/05/19 12:31:04;;;;;;;;;;;;;;;14.93;81.08;98185.63;1764996;81;20156;-62
2021/05/19 12:33:42;;;;;;;;;;;;;;;14.90;81.22;98185.74;1764982;81;20176;-61
2021/05/19 12:36:09;;;;;;;;;;;;;;;14.80;81.56;98190.84;1768782;81;20168;-61
2021/05/19 12:38:44;;;;;;;;;;;;;;;14.73;81.55;98196.06;1764864;81;20168;-62
2021/05/19 12:41:11;;;;;;;;;;;;;;;14.63;81.80;98192.37;1770140;80;20144;-61